Time,TemperatureF,DewpointF,PressureIn,WindDirection,WindDirectionDegrees,WindSpeedMPH,WindSpeedGustMPH,Humidity,HourlyPrecipIn,Conditions,Clouds,dailyrainin,SoftwareType,DateUTC
2013-04-20 00:00:00,40.5,32.2,30.13,South,177,0.0,4.0,72,0.00,,,1.57,Wunderground v.1.15,2013-04-20 05:00:00,
2013-04-20 00:05:00,40.4,32.8,30.13,South,177,0.0,4.0,74,0.00,,,0.00,Wunderground v.1.15,2013-04-20 05:05:00,
2013-04-20 00:10:00,40.1,32.5,30.13,South,177,0.0,4.0,74,0.00,,,0.00,Wunderground v.1.15,2013-04-20 05:10:00,
2013-04-20 00:16:00,39.7,32.4,30.13,South,177,0.0,4.0,75,0.00,,,0.00,Wunderground v.1.15,2013-04-20 05:16:00,
2013-04-20 00:21:00,39.3,32.4,30.13,South,177,0.0,4.0,76,0.00,,,0.00,Wunderground v.1.15,2013-04-20 05:21:00,
2013-04-20 00:27:00,39.1,32.5,30.13,South,177,0.0,4.0,77,0.00,,,0.00,Wunderground v.1.15,2013-04-20 05:27:00,
2013-04-20 00:33:00,39.0,33.0,30.14,South,177,0.0,4.0,79,0.00,,,0.00,Wunderground v.1.15,2013-04-20 05:33:00,
2013-04-20 00:38:00,39.0,32.4,30.14,South,177,0.0,4.0,77,0.00,,,0.00,Wunderground v.1.15,2013-04-20 05:38:00,
2013-04-20 00:44:00,39.1,33.5,30.14,South,177,0.0,4.0,80,0.00,,,0.00,Wunderground v.1.15,2013-04-20 05:44:00,
2013-04-20 00:49:00,39.0,33.4,30.14,South,177,0.0,4.0,80,0.00,,,0.00,Wunderground v.1.15,2013-04-20 05:49:00,
2013-04-20 00:54:00,38.8,33.2,30.14,South,177,0.0,4.0,80,0.00,,,0.00,Wunderground v.1.15,2013-04-20 05:54:00,
2013-04-20 01:00:00,38.8,32.2,30.14,South,177,0.0,4.0,77,0.00,,,0.00,Wunderground v.1.15,2013-04-20 06:00:00,
2013-04-20 01:05:00,39.0,32.1,30.14,South,177,0.0,4.0,76,0.00,,,0.00,Wunderground v.1.15,2013-04-20 06:05:00,
2013-04-20 01:11:00,39.4,31.8,30.14,South,180,0.0,4.0,74,0.00,,,0.00,Wunderground v.1.15,2013-04-20 06:11:00,
2013-04-20 01:16:00,39.4,32.1,30.14,South,177,0.0,4.0,75,0.00,,,0.00,Wunderground v.1.15,2013-04-20 06:16:00,
2013-04-20 01:21:00,39.3,32.0,30.14,South,177,1.0,4.0,75,0.00,,,0.00,Wunderground v.1.15,2013-04-20 06:21:00,
2013-04-20 01:27:00,39.1,31.8,30.14,South,177,1.0,4.0,75,0.00,,,0.00,Wunderground v.1.15,2013-04-20 06:27:00,
2013-04-20 01:32:00,38.8,32.2,30.14,South,178,1.0,4.0,77,0.00,,,0.00,Wunderground v.1.15,2013-04-20 06:32:00,
2013-04-20 01:38:00,38.5,31.9,30.14,South,172,1.0,4.0,77,0.00,,,0.00,Wunderground v.1.15,2013-04-20 06:38:00,
2013-04-20 01:43:00,38.3,32.0,30.14,South,177,0.0,4.0,78,0.00,,,0.00,Wunderground v.1.15,2013-04-20 06:43:00,
2013-04-20 01:48:00,38.0,32.1,30.14,South,177,0.0,4.0,79,0.00,,,0.00,Wunderground v.1.15,2013-04-20 06:48:00,
2013-04-20 01:54:00,37.7,32.1,30.14,South,177,0.0,4.0,80,0.00,,,0.00,Wunderground v.1.15,2013-04-20 06:54:00,
2013-04-20 01:59:00,37.5,31.9,30.14,South,181,0.0,4.0,80,0.00,,,0.00,Wunderground v.1.15,2013-04-20 06:59:00,
2013-04-20 02:04:00,37.5,32.2,30.14,South,173,1.0,4.0,81,0.00,,,0.00,Wunderground v.1.15,2013-04-20 07:04:00,
2013-04-20 02:10:00,37.4,32.1,30.14,South,177,1.0,4.0,81,0.00,,,0.00,Wunderground v.1.15,2013-04-20 07:10:00,
2013-04-20 02:15:00,37.2,31.9,30.14,SSE,167,1.0,4.0,81,0.00,,,0.00,Wunderground v.1.15,2013-04-20 07:15:00,
2013-04-20 02:21:00,37.1,32.1,30.14,South,171,1.0,4.0,82,0.00,,,0.00,Wunderground v.1.15,2013-04-20 07:21:00,
2013-04-20 02:26:00,36.9,31.9,30.14,South,172,1.0,4.0,82,0.00,,,0.00,Wunderground v.1.15,2013-04-20 07:26:00,
2013-04-20 02:31:00,36.9,31.9,30.14,South,171,1.0,4.0,82,0.00,,,0.00,Wunderground v.1.15,2013-04-20 07:31:00,
2013-04-20 02:37:00,36.7,31.7,30.14,South,177,1.0,4.0,82,0.00,,,0.00,Wunderground v.1.15,2013-04-20 07:37:00,
2013-04-20 02:42:00,36.5,31.8,30.14,South,177,1.0,4.0,83,0.00,,,0.00,Wunderground v.1.15,2013-04-20 07:42:00,
2013-04-20 02:48:00,36.5,31.8,30.14,South,176,1.0,4.0,83,0.00,,,0.00,Wunderground v.1.15,2013-04-20 07:48:00,
2013-04-20 02:53:00,36.3,31.6,30.14,South,177,1.0,4.0,83,0.00,,,0.00,Wunderground v.1.15,2013-04-20 07:53:00,
2013-04-20 02:58:00,36.2,31.8,30.14,South,171,1.0,4.0,84,0.00,,,0.00,Wunderground v.1.15,2013-04-20 07:58:00,
2013-04-20 03:04:00,36.2,31.8,30.14,South,176,1.0,4.0,84,0.00,,,0.00,Wunderground v.1.15,2013-04-20 08:04:00,
2013-04-20 03:09:00,36.1,31.7,30.14,South,174,0.0,4.0,84,0.00,,,0.00,Wunderground v.1.15,2013-04-20 08:09:00,
2013-04-20 03:15:00,36.3,31.6,30.14,South,174,1.0,4.0,83,0.00,,,0.00,Wunderground v.1.15,2013-04-20 08:15:00,
2013-04-20 03:21:00,36.3,31.6,30.15,South,174,1.0,4.0,83,0.00,,,0.00,Wunderground v.1.15,2013-04-20 08:21:00,
2013-04-20 03:26:00,35.9,31.5,30.15,South,177,1.0,4.0,84,0.00,,,0.00,Wunderground v.1.15,2013-04-20 08:26:00,
2013-04-20 03:32:00,35.6,31.8,30.15,South,177,0.0,4.0,86,0.00,,,0.00,Wunderground v.1.15,2013-04-20 08:32:00,
2013-04-20 03:37:00,35.2,31.7,30.15,South,177,0.0,4.0,87,0.00,,,0.00,Wunderground v.1.15,2013-04-20 08:37:00,
2013-04-20 03:42:00,35.0,31.5,30.15,South,177,0.0,4.0,87,0.00,,,0.00,Wunderground v.1.15,2013-04-20 08:42:00,
2013-04-20 03:48:00,34.7,31.5,30.15,South,183,0.0,4.0,88,0.00,,,0.00,Wunderground v.1.15,2013-04-20 08:48:00,
2013-04-20 03:54:00,34.3,31.1,30.15,South,183,0.0,4.0,88,0.00,,,0.00,Wunderground v.1.15,2013-04-20 08:54:00,
2013-04-20 03:59:00,33.9,30.7,30.15,South,183,0.0,4.0,88,0.00,,,0.00,Wunderground v.1.15,2013-04-20 08:59:00,
2013-04-20 04:04:00,33.6,30.7,30.16,South,183,0.0,4.0,89,0.00,,,0.00,Wunderground v.1.15,2013-04-20 09:04:00,
2013-04-20 04:10:00,33.5,31.2,30.16,South,184,0.0,4.0,91,0.00,,,0.00,Wunderground v.1.15,2013-04-20 09:10:00,
2013-04-20 04:15:00,33.3,31.0,30.16,South,183,0.0,4.0,91,0.00,,,0.00,Wunderground v.1.15,2013-04-20 09:15:00,
2013-04-20 04:20:00,33.2,31.1,30.16,South,183,0.0,4.0,92,0.00,,,0.00,Wunderground v.1.15,2013-04-20 09:20:00,
2013-04-20 04:26:00,33.3,31.5,30.16,South,183,0.0,4.0,93,0.00,,,0.00,Wunderground v.1.15,2013-04-20 09:26:00,
2013-04-20 04:31:00,33.3,31.5,30.16,South,188,0.0,4.0,93,0.00,,,0.00,Wunderground v.1.15,2013-04-20 09:31:00,
2013-04-20 04:37:00,33.2,31.4,30.16,South,188,0.0,4.0,93,0.00,,,0.00,Wunderground v.1.15,2013-04-20 09:37:00,
2013-04-20 04:42:00,33.2,31.7,30.17,South,188,0.0,4.0,94,0.00,,,0.00,Wunderground v.1.15,2013-04-20 09:42:00,
2013-04-20 04:47:00,33.3,31.8,30.17,South,188,0.0,4.0,94,0.00,,,0.00,Wunderground v.1.15,2013-04-20 09:47:00,
2013-04-20 04:53:00,33.1,31.6,30.17,South,188,0.0,4.0,94,0.00,,,0.00,Wunderground v.1.15,2013-04-20 09:53:00,
2013-04-20 04:58:00,33.0,31.5,30.17,South,188,0.0,4.0,94,0.00,,,0.00,Wunderground v.1.15,2013-04-20 09:58:00,
2013-04-20 05:03:00,33.0,31.5,30.17,South,188,0.0,4.0,94,0.00,,,0.00,Wunderground v.1.15,2013-04-20 10:03:00,
2013-04-20 05:09:00,33.0,31.5,30.17,South,188,0.0,4.0,94,0.00,,,0.00,Wunderground v.1.15,2013-04-20 10:09:00,
2013-04-20 05:14:00,32.8,31.3,30.17,South,188,0.0,4.0,94,0.00,,,0.00,Wunderground v.1.15,2013-04-20 10:14:00,
2013-04-20 05:20:00,32.5,31.0,30.17,South,188,0.0,4.0,94,0.00,,,0.00,Wunderground v.1.15,2013-04-20 10:20:00,
2013-04-20 05:26:00,32.4,30.9,30.18,South,188,0.0,4.0,94,0.00,,,0.00,Wunderground v.1.15,2013-04-20 10:26:00,
2013-04-20 05:31:00,32.3,30.8,30.18,South,188,0.0,4.0,94,0.00,,,0.00,Wunderground v.1.15,2013-04-20 10:31:00,
2013-04-20 05:36:00,32.4,31.1,30.18,South,188,0.0,4.0,95,0.00,,,0.00,Wunderground v.1.15,2013-04-20 10:36:00,
2013-04-20 05:42:00,32.5,31.2,30.18,South,188,0.0,4.0,95,0.00,,,0.00,Wunderground v.1.15,2013-04-20 10:42:00,
2013-04-20 05:47:00,32.5,31.2,30.18,South,188,0.0,4.0,95,0.00,,,0.00,Wunderground v.1.15,2013-04-20 10:47:00,
2013-04-20 05:53:00,32.5,31.2,30.18,South,188,0.0,4.0,95,0.00,,,0.00,Wunderground v.1.15,2013-04-20 10:53:00,
2013-04-20 05:58:00,32.6,31.3,30.18,South,187,0.0,4.0,95,0.00,,,0.00,Wunderground v.1.15,2013-04-20 10:58:00,
2013-04-20 06:03:00,32.7,31.4,30.18,South,186,0.0,4.0,95,0.00,,,0.00,Wunderground v.1.15,2013-04-20 11:03:00,
2013-04-20 06:09:00,32.6,31.3,30.18,South,188,0.0,4.0,95,0.00,,,0.00,Wunderground v.1.15,2013-04-20 11:09:00,
2013-04-20 06:14:00,32.4,31.1,30.19,South,188,0.0,4.0,95,0.00,,,0.00,Wunderground v.1.15,2013-04-20 11:14:00,
2013-04-20 06:19:00,32.3,31.0,30.19,South,188,0.0,4.0,95,0.00,,,0.00,Wunderground v.1.15,2013-04-20 11:19:00,
2013-04-20 06:25:00,32.4,31.1,30.19,South,187,0.0,4.0,95,0.00,,,0.00,Wunderground v.1.15,2013-04-20 11:25:00,
2013-04-20 06:30:00,32.5,31.2,30.19,South,186,0.0,4.0,95,0.00,,,0.00,Wunderground v.1.15,2013-04-20 11:30:00,
2013-04-20 06:35:00,32.7,31.4,30.20,South,187,0.0,4.0,95,0.00,,,0.00,Wunderground v.1.15,2013-04-20 11:35:00,
2013-04-20 06:41:00,33.0,31.7,30.20,South,186,0.0,4.0,95,0.00,,,0.00,Wunderground v.1.15,2013-04-20 11:41:00,
2013-04-20 06:46:00,33.4,32.4,30.20,South,178,0.0,4.0,96,0.00,,,0.00,Wunderground v.1.15,2013-04-20 11:46:00,
2013-04-20 06:51:00,33.7,32.7,30.21,South,178,0.0,4.0,96,0.00,,,0.00,Wunderground v.1.15,2013-04-20 11:51:00,
2013-04-20 06:56:00,34.0,32.7,30.21,South,178,1.0,4.0,95,0.00,,,0.00,Wunderground v.1.15,2013-04-20 11:56:00,
2013-04-20 07:02:00,34.3,33.3,30.21,South,179,0.0,4.0,96,0.00,,,0.00,Wunderground v.1.15,2013-04-20 12:02:00,
2013-04-20 07:07:00,34.4,33.1,30.22,South,184,0.0,4.0,95,0.00,,,0.00,Wunderground v.1.15,2013-04-20 12:07:00,
2013-04-20 07:13:00,34.5,33.2,30.22,South,183,0.0,4.0,95,0.00,,,0.00,Wunderground v.1.15,2013-04-20 12:13:00,
2013-04-20 07:18:00,34.8,33.5,30.22,South,184,0.0,4.0,95,0.00,,,0.00,Wunderground v.1.15,2013-04-20 12:18:00,
2013-04-20 07:24:00,35.2,34.2,30.22,South,185,0.0,4.0,96,0.00,,,0.00,Wunderground v.1.15,2013-04-20 12:24:00,
2013-04-20 07:30:00,35.3,34.0,30.23,South,180,1.0,1.0,95,0.00,,,0.00,Wunderground v.1.15,2013-04-20 12:30:00,
2013-04-20 07:35:00,35.5,33.9,30.23,South,185,1.0,4.0,94,0.00,,,0.00,Wunderground v.1.15,2013-04-20 12:35:00,
2013-04-20 07:40:00,35.9,34.1,30.23,South,178,1.0,4.0,93,0.00,,,0.00,Wunderground v.1.15,2013-04-20 12:40:00,
2013-04-20 07:46:00,36.6,34.5,30.23,South,183,1.0,4.0,92,0.00,,,0.00,Wunderground v.1.15,2013-04-20 12:46:00,
2013-04-20 07:51:00,37.0,34.9,30.23,South,185,1.0,4.0,92,0.00,,,0.00,Wunderground v.1.15,2013-04-20 12:51:00,
2013-04-20 07:57:00,37.3,34.9,30.24,South,181,1.0,4.0,91,0.00,,,0.00,Wunderground v.1.15,2013-04-20 12:57:00,
2013-04-20 08:02:00,37.8,35.4,30.24,South,188,1.0,4.0,91,0.00,,,0.00,Wunderground v.1.15,2013-04-20 13:02:00,
2013-04-20 08:07:00,38.3,35.6,30.24,South,185,1.0,4.0,90,0.00,,,0.00,Wunderground v.1.15,2013-04-20 13:07:00,
2013-04-20 08:13:00,38.7,35.7,30.24,SSW,194,1.0,4.0,89,0.00,,,0.00,Wunderground v.1.15,2013-04-20 13:13:00,
2013-04-20 08:18:00,39.3,36.3,30.24,SSW,198,0.0,4.0,89,0.00,,,0.00,Wunderground v.1.15,2013-04-20 13:18:00,
2013-04-20 08:23:00,40.1,36.2,30.24,South,179,0.0,4.0,86,0.00,,,0.00,Wunderground v.1.15,2013-04-20 13:23:00,
2013-04-20 08:29:00,39.9,35.8,30.25,South,180,0.0,4.0,85,0.00,,,0.00,Wunderground v.1.15,2013-04-20 13:29:00,
2013-04-20 08:34:00,40.6,36.4,30.24,South,187,1.0,4.0,85,0.00,,,0.00,Wunderground v.1.15,2013-04-20 13:34:00,
2013-04-20 08:39:00,41.1,35.7,30.25,South,176,1.0,4.0,81,0.00,,,0.00,Wunderground v.1.15,2013-04-20 13:39:00,
2013-04-20 08:45:00,42.2,36.5,30.25,South,187,2.0,4.0,80,0.00,,,0.00,Wunderground v.1.15,2013-04-20 13:45:00,
2013-04-20 08:50:00,43.1,37.3,30.25,SSW,198,1.0,4.0,80,0.00,,,0.00,Wunderground v.1.15,2013-04-20 13:50:00,
2013-04-20 08:56:00,42.8,36.4,30.25,SSW,198,1.0,4.0,78,0.00,,,0.00,Wunderground v.1.15,2013-04-20 13:56:00,
2013-04-20 09:01:00,43.1,36.7,30.25,SSW,200,1.0,4.0,78,0.00,,,0.00,Wunderground v.1.15,2013-04-20 14:01:00,
2013-04-20 09:06:00,43.5,36.8,30.25,SSW,201,1.0,4.0,77,0.00,,,0.00,Wunderground v.1.15,2013-04-20 14:06:00,
2013-04-20 09:12:00,44.6,38.2,30.25,South,178,1.0,4.0,78,0.00,,,0.00,Wunderground v.1.15,2013-04-20 14:12:00,
2013-04-20 09:17:00,45.1,38.0,30.25,South,185,1.0,4.0,76,0.00,,,0.00,Wunderground v.1.15,2013-04-20 14:17:00,
2013-04-20 09:22:00,45.7,38.2,30.25,South,178,1.0,4.0,75,0.00,,,0.00,Wunderground v.1.15,2013-04-20 14:22:00,
2013-04-20 09:28:00,46.7,38.1,30.25,South,190,1.0,4.0,72,0.00,,,0.00,Wunderground v.1.15,2013-04-20 14:28:00,
2013-04-20 09:33:00,48.0,38.3,30.25,South,173,1.0,4.0,69,0.00,,,0.00,Wunderground v.1.15,2013-04-20 14:33:00,
2013-04-20 09:39:00,48.1,38.8,30.25,SSW,202,1.0,4.0,70,0.00,,,0.00,Wunderground v.1.15,2013-04-20 14:39:00,
2013-04-20 09:44:00,48.9,38.4,30.25,South,185,2.0,5.0,67,0.00,,,0.00,Wunderground v.1.15,2013-04-20 14:44:00,
2013-04-20 09:50:00,49.4,39.3,30.26,South,178,1.0,4.0,68,0.00,,,0.00,Wunderground v.1.15,2013-04-20 14:50:00,
2013-04-20 09:55:00,50.2,38.1,30.25,SSW,205,2.0,4.0,63,0.00,,,0.00,Wunderground v.1.15,2013-04-20 14:55:00,
2013-04-20 10:01:00,50.7,37.7,30.26,South,185,2.0,4.0,61,0.00,,,0.00,Wunderground v.1.15,2013-04-20 15:01:00,
2013-04-20 10:06:00,51.4,36.2,30.26,South,186,2.0,4.0,56,0.00,,,0.00,Wunderground v.1.15,2013-04-20 15:06:00,
2013-04-20 10:12:00,51.5,36.8,30.26,SSE,162,2.0,4.0,57,0.00,,,0.00,Wunderground v.1.15,2013-04-20 15:12:00,
2013-04-20 10:17:00,52.7,37.4,30.26,South,170,2.0,4.0,56,0.00,,,0.00,Wunderground v.1.15,2013-04-20 15:17:00,
2013-04-20 10:23:00,53.2,38.4,30.26,South,185,2.0,4.0,57,0.00,,,0.00,Wunderground v.1.15,2013-04-20 15:23:00,
2013-04-20 10:28:00,53.4,38.1,30.26,South,169,3.0,4.0,56,0.00,,,0.00,Wunderground v.1.15,2013-04-20 15:28:00,
2013-04-20 10:33:00,54.1,36.9,30.26,South,179,2.0,4.0,52,0.00,,,0.00,Wunderground v.1.15,2013-04-20 15:33:00,
2013-04-20 10:39:00,54.3,35.5,30.26,South,176,3.0,5.0,49,0.00,,,0.00,Wunderground v.1.15,2013-04-20 15:39:00,
2013-04-20 10:44:00,54.1,36.9,30.26,SSE,151,3.0,6.0,52,0.00,,,0.00,Wunderground v.1.15,2013-04-20 15:44:00,
2013-04-20 10:50:00,55.1,35.7,30.26,ESE,122,3.0,5.0,48,0.00,,,0.00,Wunderground v.1.15,2013-04-20 15:50:00,
2013-04-20 10:55:00,55.5,36.6,30.26,SSE,149,2.0,5.0,49,0.00,,,0.00,Wunderground v.1.15,2013-04-20 15:55:00,
2013-04-20 11:01:00,55.9,35.9,30.25,SSW,197,2.0,4.0,47,0.00,,,0.00,Wunderground v.1.15,2013-04-20 16:01:00,
2013-04-20 11:06:00,56.8,33.3,30.25,South,169,2.0,4.0,41,0.00,,,0.00,Wunderground v.1.15,2013-04-20 16:06:00,
2013-04-20 11:11:00,56.7,31.4,30.25,SSE,167,2.0,4.0,38,0.00,,,0.00,Wunderground v.1.15,2013-04-20 16:11:00,
2013-04-20 11:17:00,56.5,31.2,30.25,SSE,149,3.0,5.0,38,0.00,,,0.00,Wunderground v.1.15,2013-04-20 16:17:00,
2013-04-20 11:22:00,56.6,28.5,30.25,SE,133,4.0,8.0,34,0.00,,,0.00,Wunderground v.1.15,2013-04-20 16:22:00,
2013-04-20 11:28:00,56.4,28.3,30.25,SSE,157,5.0,8.0,34,0.00,,,0.00,Wunderground v.1.15,2013-04-20 16:28:00,
2013-04-20 11:33:00,56.7,30.0,30.25,SSE,153,4.0,5.0,36,0.00,,,0.00,Wunderground v.1.15,2013-04-20 16:33:00,
2013-04-20 11:38:00,57.6,31.5,30.25,ESE,110,3.0,5.0,37,0.00,,,0.00,Wunderground v.1.15,2013-04-20 16:38:00,
2013-04-20 11:44:00,57.5,29.3,30.25,South,169,3.0,4.0,34,0.00,,,0.00,Wunderground v.1.15,2013-04-20 16:44:00,
2013-04-20 11:49:00,57.8,28.9,30.25,SSW,198,3.0,4.0,33,0.00,,,0.00,Wunderground v.1.15,2013-04-20 16:49:00,
2013-04-20 11:55:00,58.1,30.6,30.24,SE,141,3.0,7.0,35,0.00,,,0.00,Wunderground v.1.15,2013-04-20 16:55:00,
2013-04-20 12:00:00,57.8,30.3,30.24,ESE,109,4.0,5.0,35,0.00,,,0.00,Wunderground v.1.15,2013-04-20 17:00:00,
2013-04-20 12:05:00,57.6,28.7,30.24,SE,140,4.0,5.0,33,0.00,,,0.00,Wunderground v.1.15,2013-04-20 17:05:00,
2013-04-20 12:11:00,57.8,28.1,30.24,SE,126,3.0,4.0,32,0.00,,,0.00,Wunderground v.1.15,2013-04-20 17:11:00,
2013-04-20 12:16:00,58.3,31.4,30.23,SE,131,3.0,4.0,36,0.00,,,0.00,Wunderground v.1.15,2013-04-20 17:16:00,
2013-04-20 12:22:00,59.2,30.1,30.23,ESE,122,3.0,4.0,33,0.00,,,0.00,Wunderground v.1.15,2013-04-20 17:22:00,
2013-04-20 12:28:00,59.7,30.5,30.23,South,178,4.0,7.0,33,0.00,,,0.00,Wunderground v.1.15,2013-04-20 17:28:00,
2013-04-20 12:33:00,59.8,29.9,30.23,South,177,3.0,4.0,32,0.00,,,0.00,Wunderground v.1.15,2013-04-20 17:33:00,
2013-04-20 12:39:00,59.7,29.8,30.23,ESE,113,3.0,7.0,32,0.00,,,0.00,Wunderground v.1.15,2013-04-20 17:39:00,
2013-04-20 12:45:00,59.1,31.4,30.23,SSE,160,4.0,7.0,35,0.00,,,0.00,Wunderground v.1.15,2013-04-20 17:45:00,
2013-04-20 12:50:00,59.0,30.6,30.23,East,85,4.0,5.0,34,0.00,,,0.00,Wunderground v.1.15,2013-04-20 17:50:00,
2013-04-20 12:56:00,59.0,32.7,30.23,SSE,166,4.0,10.0,37,0.00,,,0.00,Wunderground v.1.15,2013-04-20 17:56:00,
2013-04-20 13:01:00,59.7,31.3,30.22,SSE,156,4.0,4.0,34,0.00,,,0.00,Wunderground v.1.15,2013-04-20 18:01:00,
2013-04-20 13:06:00,59.8,32.8,30.23,South,186,3.0,9.0,36,0.00,,,0.00,Wunderground v.1.15,2013-04-20 18:06:00,
2013-04-20 13:12:00,60.0,32.9,30.23,SSW,207,3.0,4.0,36,0.00,,,0.00,Wunderground v.1.15,2013-04-20 18:12:00,
2013-04-20 13:17:00,59.8,34.8,30.23,South,190,3.0,5.0,39,0.00,,,0.00,Wunderground v.1.15,2013-04-20 18:17:00,
2013-04-20 13:23:00,60.4,31.1,30.23,South,186,3.0,4.0,33,0.00,,,0.00,Wunderground v.1.15,2013-04-20 18:23:00,
2013-04-20 13:28:00,59.8,30.6,30.22,SSE,155,3.0,7.0,33,0.00,,,0.00,Wunderground v.1.15,2013-04-20 18:28:00,
2013-04-20 13:34:00,60.2,29.4,30.22,ESE,102,4.0,5.0,31,0.00,,,0.00,Wunderground v.1.15,2013-04-20 18:34:00,
2013-04-20 13:39:00,60.7,34.3,30.22,SSE,167,4.0,6.0,37,0.00,,,0.00,Wunderground v.1.15,2013-04-20 18:39:00,
2013-04-20 13:45:00,60.2,30.2,30.22,SSE,151,3.0,5.0,32,0.00,,,0.00,Wunderground v.1.15,2013-04-20 18:45:00,
2013-04-20 13:50:00,60.3,31.0,30.22,South,191,3.0,3.0,33,0.00,,,0.00,Wunderground v.1.15,2013-04-20 18:50:00,
2013-04-20 13:55:00,61.5,32.1,30.22,SW,228,3.0,4.0,33,0.00,,,0.00,Wunderground v.1.15,2013-04-20 18:55:00,
2013-04-20 14:01:00,62.0,33.3,30.22,South,188,2.0,4.0,34,0.00,,,0.00,Wunderground v.1.15,2013-04-20 19:01:00,
2013-04-20 14:06:00,63.0,29.4,30.22,SSE,166,1.0,4.0,28,0.00,,,0.00,Wunderground v.1.15,2013-04-20 19:06:00,
2013-04-20 14:12:00,63.0,31.0,30.22,South,178,2.0,4.0,30,0.00,,,0.00,Wunderground v.1.15,2013-04-20 19:12:00,
2013-04-20 14:17:00,62.9,29.3,30.21,SE,134,2.0,4.0,28,0.00,,,0.00,Wunderground v.1.15,2013-04-20 19:17:00,
2013-04-20 14:22:00,62.5,30.6,30.21,SSE,159,3.0,4.0,30,0.00,,,0.00,Wunderground v.1.15,2013-04-20 19:22:00,
2013-04-20 14:28:00,62.6,29.0,30.21,East,79,3.0,5.0,28,0.00,,,0.00,Wunderground v.1.15,2013-04-20 19:28:00,
2013-04-20 14:33:00,62.0,31.0,30.21,South,171,4.0,5.0,31,0.00,,,0.00,Wunderground v.1.15,2013-04-20 19:33:00,
2013-04-20 14:38:00,61.3,30.4,30.21,South,188,3.0,6.0,31,0.00,,,0.00,Wunderground v.1.15,2013-04-20 19:38:00,
2013-04-20 14:44:00,62.9,30.1,30.21,South,190,2.0,4.0,29,0.00,,,0.00,Wunderground v.1.15,2013-04-20 19:44:00,
2013-04-20 14:49:00,63.0,32.7,30.21,SW,234,3.0,6.0,32,0.00,,,0.00,Wunderground v.1.15,2013-04-20 19:49:00,
2013-04-20 14:55:00,63.5,33.9,30.21,ESE,103,3.0,5.0,33,0.00,,,0.00,Wunderground v.1.15,2013-04-20 19:55:00,
2013-04-20 15:00:00,63.1,29.4,30.21,SE,136,3.0,5.0,28,0.00,,,0.00,Wunderground v.1.15,2013-04-20 20:00:00,
2013-04-20 15:06:00,61.9,28.4,30.21,ENE,77,4.0,9.0,28,0.00,,,0.00,Wunderground v.1.15,2013-04-20 20:06:00,
2013-04-20 15:12:00,61.6,28.1,30.21,ENE,61,4.0,4.0,28,0.00,,,0.00,Wunderground v.1.15,2013-04-20 20:12:00,
2013-04-20 15:17:00,62.3,31.3,30.21,South,188,4.0,4.0,31,0.00,,,0.00,Wunderground v.1.15,2013-04-20 20:17:00,
2013-04-20 15:23:00,62.1,28.6,30.20,East,93,4.0,7.0,28,0.00,,,0.00,Wunderground v.1.15,2013-04-20 20:23:00,
2013-04-20 15:28:00,62.0,33.3,30.20,NNE,29,5.0,7.0,34,0.00,,,0.00,Wunderground v.1.15,2013-04-20 20:28:00,
2013-04-20 15:33:00,62.3,28.7,30.20,SSW,206,4.0,5.0,28,0.00,,,0.00,Wunderground v.1.15,2013-04-20 20:33:00,
2013-04-20 15:39:00,63.0,31.0,30.21,SSE,162,3.0,5.0,30,0.00,,,0.00,Wunderground v.1.15,2013-04-20 20:39:00,
2013-04-20 15:44:00,63.8,31.7,30.21,ESE,102,2.0,4.0,30,0.00,,,0.00,Wunderground v.1.15,2013-04-20 20:44:00,
2013-04-20 15:49:00,63.6,31.6,30.21,South,187,3.0,4.0,30,0.00,,,0.00,Wunderground v.1.15,2013-04-20 20:49:00,
2013-04-20 15:55:00,63.2,30.4,30.20,South,178,3.0,4.0,29,0.00,,,0.00,Wunderground v.1.15,2013-04-20 20:55:00,
2013-04-20 16:00:00,63.8,29.1,30.21,South,171,3.0,3.0,27,0.00,,,0.00,Wunderground v.1.15,2013-04-20 21:00:00,
2013-04-20 16:06:00,63.0,30.2,30.20,South,187,3.0,5.0,29,0.00,,,0.00,Wunderground v.1.15,2013-04-20 21:06:00,
2013-04-20 16:11:00,62.7,30.8,30.20,South,174,3.0,4.0,30,0.00,,,0.00,Wunderground v.1.15,2013-04-20 21:11:00,
2013-04-20 16:16:00,63.2,31.2,30.20,NNE,17,2.0,6.0,30,0.00,,,0.00,Wunderground v.1.15,2013-04-20 21:16:00,
2013-04-20 16:22:00,62.3,29.6,30.20,SSE,156,3.0,4.0,29,0.00,,,0.00,Wunderground v.1.15,2013-04-20 21:22:00,
2013-04-20 16:27:00,62.4,28.8,30.20,SE,136,3.0,4.0,28,0.00,,,0.00,Wunderground v.1.15,2013-04-20 21:27:00,
2013-04-20 16:33:00,62.0,29.3,30.20,SE,133,3.0,4.0,29,0.00,,,0.00,Wunderground v.1.15,2013-04-20 21:33:00,
2013-04-20 16:38:00,62.0,31.0,30.20,South,174,3.0,4.0,31,0.00,,,0.00,Wunderground v.1.15,2013-04-20 21:38:00,
2013-04-20 16:43:00,61.9,29.3,30.20,ESE,107,3.0,6.0,29,0.00,,,0.00,Wunderground v.1.15,2013-04-20 21:43:00,
2013-04-20 16:49:00,61.9,29.3,30.20,SE,137,3.0,6.0,29,0.00,,,0.00,Wunderground v.1.15,2013-04-20 21:49:00,
2013-04-20 16:54:00,61.6,29.0,30.20,SE,144,3.0,4.0,29,0.00,,,0.00,Wunderground v.1.15,2013-04-20 21:54:00,
2013-04-20 16:59:00,61.5,29.7,30.20,SE,137,3.0,4.0,30,0.00,,,0.00,Wunderground v.1.15,2013-04-20 21:59:00,
2013-04-20 17:05:00,61.3,29.6,30.20,SSE,167,3.0,4.0,30,0.00,,,0.00,Wunderground v.1.15,2013-04-20 22:05:00,
2013-04-20 17:10:00,61.0,30.1,30.21,SSE,156,3.0,4.0,31,0.00,,,0.00,Wunderground v.1.15,2013-04-20 22:10:00,
2013-04-20 17:16:00,60.6,29.0,30.21,SE,141,4.0,4.0,30,0.00,,,0.00,Wunderground v.1.15,2013-04-20 22:16:00,
2013-04-20 17:21:00,60.8,29.1,30.21,SE,144,3.0,4.0,30,0.00,,,0.00,Wunderground v.1.15,2013-04-20 22:21:00,
2013-04-20 17:26:00,60.9,29.2,30.21,South,171,3.0,4.0,30,0.00,,,0.00,Wunderground v.1.15,2013-04-20 22:26:00,
2013-04-20 17:31:00,60.9,29.2,30.21,SSE,152,3.0,4.0,30,0.00,,,0.00,Wunderground v.1.15,2013-04-20 22:31:00,
2013-04-20 17:37:00,60.9,30.8,30.21,SSE,159,3.0,4.0,32,0.00,,,0.00,Wunderground v.1.15,2013-04-20 22:37:00,
2013-04-20 17:42:00,60.7,31.4,30.21,South,184,3.0,4.0,33,0.00,,,0.00,Wunderground v.1.15,2013-04-20 22:42:00,
2013-04-20 17:48:00,60.8,31.5,30.20,SE,135,2.0,4.0,33,0.00,,,0.00,Wunderground v.1.15,2013-04-20 22:48:00,
2013-04-20 17:53:00,60.5,31.2,30.21,SE,134,3.0,6.0,33,0.00,,,0.00,Wunderground v.1.15,2013-04-20 22:53:00,
2013-04-20 17:58:00,60.0,31.5,30.21,SSE,167,3.0,6.0,34,0.00,,,0.00,Wunderground v.1.15,2013-04-20 22:58:00,
2013-04-20 18:04:00,59.9,32.2,30.21,South,170,3.0,4.0,35,0.00,,,0.00,Wunderground v.1.15,2013-04-20 23:04:00,
2013-04-20 18:09:00,59.8,32.8,30.21,South,176,3.0,4.0,36,0.00,,,0.00,Wunderground v.1.15,2013-04-20 23:09:00,
2013-04-20 18:15:00,59.6,31.9,30.20,SSE,166,3.0,4.0,35,0.00,,,0.00,Wunderground v.1.15,2013-04-20 23:15:00,
2013-04-20 18:20:00,59.5,31.8,30.20,SSE,164,2.0,4.0,35,0.00,,,0.00,Wunderground v.1.15,2013-04-20 23:20:00,
2013-04-20 18:26:00,59.3,31.6,30.21,South,186,2.0,4.0,35,0.00,,,0.00,Wunderground v.1.15,2013-04-20 23:26:00,
2013-04-20 18:32:00,59.1,32.1,30.21,South,185,2.0,4.0,36,0.00,,,0.00,Wunderground v.1.15,2013-04-20 23:32:00,
2013-04-20 18:37:00,58.8,32.6,30.21,South,184,1.0,4.0,37,0.00,,,0.00,Wunderground v.1.15,2013-04-20 23:37:00,
2013-04-20 18:42:00,58.3,32.8,30.21,South,171,1.0,4.0,38,0.00,,,0.00,Wunderground v.1.15,2013-04-20 23:42:00,
2013-04-20 18:48:00,57.6,32.2,30.21,South,171,1.0,4.0,38,0.00,,,0.00,Wunderground v.1.15,2013-04-20 23:48:00,
2013-04-20 18:53:00,57.0,31.6,30.21,South,171,1.0,4.0,38,0.00,,,0.00,Wunderground v.1.15,2013-04-20 23:53:00,
2013-04-20 18:58:00,56.5,31.8,30.21,South,174,2.0,4.0,39,0.00,,,0.00,Wunderground v.1.15,2013-04-20 23:58:00,
2013-04-20 19:04:00,56.0,32.0,30.21,South,179,2.0,4.0,40,0.00,,,0.00,Wunderground v.1.15,2013-04-21 00:04:00,
2013-04-20 19:09:00,55.5,31.5,30.22,South,174,1.0,4.0,40,0.00,,,0.00,Wunderground v.1.15,2013-04-21 00:09:00,
2013-04-20 19:14:00,55.0,31.7,30.22,SSE,168,1.0,4.0,41,0.00,,,0.00,Wunderground v.1.15,2013-04-21 00:14:00,
2013-04-20 19:20:00,54.7,32.0,30.22,South,170,2.0,4.0,42,0.00,,,0.00,Wunderground v.1.15,2013-04-21 00:20:00,
2013-04-20 19:25:00,54.4,31.2,30.22,South,176,2.0,4.0,41,0.00,,,0.00,Wunderground v.1.15,2013-04-21 00:25:00,
2013-04-20 19:31:00,54.1,32.1,30.22,South,175,1.0,4.0,43,0.00,,,0.00,Wunderground v.1.15,2013-04-21 00:31:00,
2013-04-20 19:36:00,53.5,31.5,30.23,South,176,1.0,4.0,43,0.00,,,0.00,Wunderground v.1.15,2013-04-21 00:36:00,
2013-04-20 19:42:00,53.3,31.9,30.23,South,178,0.0,4.0,44,0.00,,,0.00,Wunderground v.1.15,2013-04-21 00:42:00,
2013-04-20 19:47:00,53.1,30.6,30.23,South,185,0.0,4.0,42,0.00,,,0.00,Wunderground v.1.15,2013-04-21 00:47:00,
2013-04-20 19:53:00,53.0,30.5,30.24,South,174,1.0,4.0,42,0.00,,,0.00,Wunderground v.1.15,2013-04-21 00:53:00,
2013-04-20 19:58:00,53.2,31.3,30.24,South,173,1.0,4.0,43,0.00,,,0.00,Wunderground v.1.15,2013-04-21 00:58:00,
2013-04-20 20:03:00,53.2,30.7,30.24,South,171,1.0,4.0,42,0.00,,,0.00,Wunderground v.1.15,2013-04-21 01:03:00,
2013-04-20 20:09:00,52.9,29.8,30.25,SSE,168,1.0,4.0,41,0.00,,,0.00,Wunderground v.1.15,2013-04-21 01:09:00,
2013-04-20 20:14:00,53.0,31.1,30.25,South,187,1.0,4.0,43,0.00,,,0.00,Wunderground v.1.15,2013-04-21 01:14:00,
2013-04-20 20:20:00,52.5,31.2,30.25,South,185,1.0,1.0,44,0.00,,,0.00,Wunderground v.1.15,2013-04-21 01:20:00,
2013-04-20 20:25:00,52.0,31.3,30.26,South,185,0.0,4.0,45,0.00,,,0.00,Wunderground v.1.15,2013-04-21 01:25:00,
2013-04-20 20:30:00,52.0,30.7,30.26,South,185,0.0,4.0,44,0.00,,,0.00,Wunderground v.1.15,2013-04-21 01:30:00,
2013-04-20 20:36:00,51.8,30.6,30.26,South,185,0.0,4.0,44,0.00,,,0.00,Wunderground v.1.15,2013-04-21 01:36:00,
2013-04-20 20:41:00,51.8,30.6,30.26,South,185,0.0,4.0,44,0.00,,,0.00,Wunderground v.1.15,2013-04-21 01:41:00,
2013-04-20 20:46:00,51.7,32.6,30.26,South,185,0.0,4.0,48,0.00,,,0.00,Wunderground v.1.15,2013-04-21 01:46:00,
2013-04-20 20:52:00,51.4,31.3,30.27,South,174,0.0,4.0,46,0.00,,,0.00,Wunderground v.1.15,2013-04-21 01:52:00,
2013-04-20 20:57:00,51.1,31.6,30.27,South,174,1.0,4.0,47,0.00,,,0.00,Wunderground v.1.15,2013-04-21 01:57:00,
2013-04-20 21:02:00,50.8,31.3,30.27,South,176,1.0,4.0,47,0.00,,,0.00,Wunderground v.1.15,2013-04-21 02:02:00,
2013-04-20 21:08:00,50.6,31.6,30.27,South,176,1.0,4.0,48,0.00,,,0.00,Wunderground v.1.15,2013-04-21 02:08:00,
2013-04-20 21:13:00,50.5,31.5,30.28,South,170,1.0,4.0,48,0.00,,,0.00,Wunderground v.1.15,2013-04-21 02:13:00,
2013-04-20 21:19:00,50.4,31.4,30.28,SSE,167,1.0,4.0,48,0.00,,,0.00,Wunderground v.1.15,2013-04-21 02:19:00,
2013-04-20 21:25:00,50.2,31.8,30.28,South,173,1.0,4.0,49,0.00,,,0.00,Wunderground v.1.15,2013-04-21 02:25:00,
2013-04-20 21:30:00,49.9,31.5,30.28,South,171,1.0,4.0,49,0.00,,,0.00,Wunderground v.1.15,2013-04-21 02:30:00,
2013-04-20 21:36:00,49.9,31.5,30.28,South,170,1.0,4.0,49,0.00,,,0.00,Wunderground v.1.15,2013-04-21 02:36:00,
2013-04-20 21:41:00,49.7,31.3,30.28,South,176,2.0,4.0,49,0.00,,,0.00,Wunderground v.1.15,2013-04-21 02:41:00,
2013-04-20 21:47:00,49.5,31.6,30.28,South,176,1.0,4.0,50,0.00,,,0.00,Wunderground v.1.15,2013-04-21 02:47:00,
2013-04-20 21:52:00,49.4,31.5,30.28,South,178,1.0,4.0,50,0.00,,,0.00,Wunderground v.1.15,2013-04-21 02:52:00,
2013-04-20 21:58:00,49.4,31.5,30.28,South,174,1.0,4.0,50,0.00,,,0.00,Wunderground v.1.15,2013-04-21 02:58:00,
2013-04-20 22:03:00,49.0,32.1,30.29,South,175,0.0,4.0,52,0.00,,,0.00,Wunderground v.1.15,2013-04-21 03:03:00,
2013-04-20 22:08:00,48.7,31.8,30.29,South,174,0.0,4.0,52,0.00,,,0.00,Wunderground v.1.15,2013-04-21 03:08:00,
2013-04-20 22:14:00,49.1,31.7,30.29,South,174,1.0,4.0,51,0.00,,,0.00,Wunderground v.1.15,2013-04-21 03:14:00,
2013-04-20 22:19:00,49.0,31.6,30.29,South,174,1.0,4.0,51,0.00,,,0.00,Wunderground v.1.15,2013-04-21 03:19:00,
2013-04-20 22:24:00,48.9,31.5,30.29,South,170,1.0,4.0,51,0.00,,,0.00,Wunderground v.1.15,2013-04-21 03:24:00,
2013-04-20 22:30:00,48.8,31.9,30.29,South,173,1.0,4.0,52,0.00,,,0.00,Wunderground v.1.15,2013-04-21 03:30:00,
2013-04-20 22:35:00,48.5,32.6,30.29,South,174,1.0,4.0,54,0.00,,,0.00,Wunderground v.1.15,2013-04-21 03:35:00,
2013-04-20 22:41:00,48.3,31.9,30.29,South,174,1.0,4.0,53,0.00,,,0.00,Wunderground v.1.15,2013-04-21 03:41:00,
2013-04-20 22:46:00,48.5,32.1,30.29,South,174,1.0,4.0,53,0.00,,,0.00,Wunderground v.1.15,2013-04-21 03:46:00,
2013-04-20 22:52:00,48.2,32.3,30.28,SSE,168,1.0,4.0,54,0.00,,,0.00,Wunderground v.1.15,2013-04-21 03:52:00,
2013-04-20 22:58:00,47.7,32.3,30.29,South,170,1.0,4.0,55,0.00,,,0.00,Wunderground v.1.15,2013-04-21 03:58:00,